createdAt,value
2022-08-31T00:08:58.635Z,3.70
2022-08-31T00:15:26.894Z,5.78
2022-08-31T00:17:53.541Z,5.40
2022-08-31T00:20:32.594Z,4.85
2022-08-31T00:23:00.596Z,3.15
2022-08-31T00:25:27.080Z,3.63
2022-08-31T00:27:55.750Z,4.53
2022-08-31T00:30:22.475Z,4.40
2022-08-31T00:32:49.084Z,3.30
2022-08-31T00:35:17.783Z,2.88
2022-08-31T00:41:14.974Z,3.78
2022-08-31T00:47:22.641Z,3.28
2022-08-31T00:50:26.388Z,3.80
2022-08-31T00:53:19.815Z,3.35
2022-08-31T00:55:46.559Z,3.03
2022-08-31T00:58:13.082Z,4.65
2022-08-31T01:00:40.485Z,3.17
2022-08-31T01:03:07.377Z,3.90
2022-08-31T01:05:45.779Z,5.03
2022-08-31T01:11:40.881Z,3.35
2022-08-31T01:14:08.487Z,3.72
2022-08-31T01:16:36.633Z,3.50
2022-08-31T01:19:04.156Z,3.88
2022-08-31T01:21:51.522Z,3.50
2022-08-31T01:24:18.085Z,4.05
2022-08-31T01:26:44.818Z,3.90
2022-08-31T01:29:21.937Z,6.72
2022-08-31T01:31:48.494Z,4.15
2022-08-31T01:34:15.049Z,4.63
2022-08-31T01:36:41.982Z,6.05
2022-08-31T01:39:09.002Z,5.10
2022-08-31T01:41:36.121Z,3.75
2022-08-31T01:44:02.728Z,5.07
2022-08-31T01:46:29.343Z,4.68
2022-08-31T01:48:55.973Z,5.65
2022-08-31T01:51:22.557Z,5.18
2022-08-31T01:53:49.552Z,6.28
2022-08-31T01:56:17.312Z,6.78
2022-08-31T01:58:45.189Z,5.72
2022-08-31T02:01:31.140Z,9.05
2022-08-31T02:03:58.453Z,7.60
2022-08-31T02:06:25.238Z,7.10
2022-08-31T02:08:51.773Z,6.82
2022-08-31T02:11:18.324Z,6.50
2022-08-31T02:13:44.941Z,7.63
2022-08-31T02:16:11.551Z,6.75
2022-08-31T02:18:38.637Z,6.45
2022-08-31T02:21:05.170Z,5.97
2022-08-31T02:23:31.728Z,9.18
2022-08-31T02:25:58.456Z,11.35
2022-08-31T02:28:25.092Z,7.38
2022-08-31T02:30:51.572Z,6.90
2022-08-31T02:33:18.748Z,7.88
2022-08-31T02:35:45.372Z,7.60
2022-08-31T02:38:16.826Z,13.25
2022-08-31T02:40:44.841Z,7.25
2022-08-31T02:43:11.673Z,7.43
2022-08-31T02:45:44.057Z,7.05
2022-08-31T02:48:17.452Z,9.68
2022-08-31T02:50:44.757Z,12.40
2022-08-31T02:53:11.601Z,11.43
2022-08-31T02:55:38.136Z,12.18
2022-08-31T02:58:04.881Z,15.07
2022-08-31T03:00:31.489Z,11.57
2022-08-31T03:02:58.077Z,12.85
2022-08-31T03:05:27.396Z,15.35
2022-08-31T03:07:53.955Z,17.13
2022-08-31T03:10:21.350Z,11.07
2022-08-31T03:12:48.401Z,10.98
2022-08-31T03:15:15.386Z,14.75
2022-08-31T03:17:41.890Z,13.43
2022-08-31T03:20:10.262Z,9.77
2022-08-31T03:22:36.821Z,11.55
2022-08-31T03:25:03.977Z,10.65
2022-08-31T03:27:30.603Z,8.07
2022-08-31T03:29:57.297Z,9.02
2022-08-31T03:32:23.915Z,7.78
2022-08-31T03:34:54.416Z,7.07
2022-08-31T03:37:21.756Z,6.82
2022-08-31T03:39:48.806Z,9.45
2022-08-31T03:42:15.467Z,8.77
2022-08-31T03:44:41.975Z,8.18
2022-08-31T03:47:08.535Z,7.13
2022-08-31T03:49:35.535Z,6.82
2022-08-31T03:52:02.476Z,11.05
2022-08-31T03:54:28.993Z,8.40
2022-08-31T03:56:56.223Z,13.70
2022-08-31T03:59:22.778Z,8.48
2022-08-31T04:01:49.367Z,8.45
2022-08-31T04:04:16.056Z,9.05
2022-08-31T04:06:43.257Z,11.30
2022-08-31T04:09:09.798Z,10.50
2022-08-31T04:11:45.430Z,9.18
2022-08-31T04:14:12.981Z,13.70
2022-08-31T04:16:43.921Z,9.23
2022-08-31T04:19:11.544Z,9.45
2022-08-31T04:21:38.396Z,10.35
2022-08-31T04:24:06.271Z,10.27
2022-08-31T04:26:33.741Z,9.23
2022-08-31T04:29:00.655Z,7.22
2022-08-31T04:31:27.489Z,8.43
2022-08-31T04:33:56.463Z,8.95
2022-08-31T04:36:23.747Z,9.35
2022-08-31T04:38:51.003Z,11.77
2022-08-31T04:41:18.520Z,7.72
2022-08-31T04:43:46.048Z,5.78
2022-08-31T04:46:12.740Z,6.13
2022-08-31T04:48:41.671Z,6.03
2022-08-31T04:51:12.288Z,8.00
2022-08-31T04:53:38.931Z,7.10
2022-08-31T04:56:07.525Z,7.03
2022-08-31T04:58:34.087Z,5.50
2022-08-31T05:01:00.664Z,5.75
2022-08-31T05:03:27.221Z,5.28
2022-08-31T05:05:53.819Z,8.40
2022-08-31T05:08:20.359Z,8.52
2022-08-31T05:10:48.707Z,8.68
2022-08-31T05:13:15.342Z,10.57
2022-08-31T05:15:42.838Z,6.90
2022-08-31T05:18:09.749Z,6.63
2022-08-31T05:20:36.498Z,8.63
2022-08-31T05:23:03.018Z,6.63
2022-08-31T05:25:29.597Z,5.10
2022-08-31T05:27:56.429Z,7.97
2022-08-31T05:30:23.253Z,6.53
2022-08-31T05:32:49.875Z,5.65
2022-08-31T05:35:16.472Z,7.45
2022-08-31T05:37:43.198Z,4.88
2022-08-31T05:40:09.988Z,6.35
2022-08-31T05:42:36.633Z,4.07
2022-08-31T05:45:03.220Z,7.40
2022-08-31T05:47:29.830Z,3.58
2022-08-31T05:49:56.341Z,6.40
2022-08-31T05:52:24.759Z,6.10
2022-08-31T05:54:51.825Z,5.80
2022-08-31T05:57:18.366Z,5.68
2022-08-31T05:59:44.945Z,6.25
2022-08-31T06:02:11.920Z,4.95
2022-08-31T06:04:38.540Z,5.18
2022-08-31T06:07:05.630Z,7.10
2022-08-31T06:09:33.750Z,6.82
2022-08-31T06:12:00.206Z,7.82
2022-08-31T06:14:27.180Z,6.40
2022-08-31T06:16:55.609Z,8.88
2022-08-31T06:19:22.138Z,7.22
2022-08-31T06:21:51.019Z,8.55
2022-08-31T06:24:18.142Z,7.30
2022-08-31T06:26:56.832Z,5.35
2022-08-31T06:29:24.415Z,8.05
2022-08-31T06:31:50.942Z,6.50
2022-08-31T06:34:18.053Z,10.50
2022-08-31T06:36:44.584Z,10.93
2022-08-31T06:39:12.580Z,7.13
2022-08-31T06:41:39.458Z,8.35
2022-08-31T06:44:06.847Z,9.88
2022-08-31T06:46:33.582Z,8.02
2022-08-31T06:49:00.216Z,8.27
2022-08-31T06:51:26.848Z,8.63
2022-08-31T06:53:53.397Z,5.20
2022-08-31T06:56:21.343Z,5.25
2022-08-31T06:58:48.810Z,7.40
2022-08-31T07:01:34.745Z,5.47
2022-08-31T07:04:04.457Z,4.70
2022-08-31T07:06:32.080Z,8.55
2022-08-31T07:09:00.762Z,6.72
2022-08-31T07:11:28.626Z,8.35
2022-08-31T07:13:55.894Z,6.88
2022-08-31T07:16:24.629Z,5.28
2022-08-31T07:18:51.436Z,7.80
2022-08-31T07:21:21.238Z,6.20
2022-08-31T07:23:49.282Z,7.28
2022-08-31T07:26:31.492Z,10.40
2022-08-31T07:29:00.035Z,8.85
2022-08-31T07:31:30.731Z,8.88
2022-08-31T07:33:57.396Z,6.47
2022-08-31T07:36:30.052Z,6.43
2022-08-31T07:39:15.320Z,6.43
2022-08-31T07:42:00.547Z,6.45
2022-08-31T07:44:27.523Z,6.72
2022-08-31T07:46:55.315Z,11.85
2022-08-31T07:49:21.909Z,13.15
2022-08-31T07:51:53.082Z,5.00
2022-08-31T07:54:24.282Z,6.95
2022-08-31T07:56:51.484Z,4.80
2022-08-31T07:59:18.705Z,6.38
2022-08-31T08:01:45.728Z,8.07
2022-08-31T08:04:15.781Z,3.60
2022-08-31T08:06:42.337Z,4.57
2022-08-31T08:09:27.043Z,10.57
2022-08-31T08:12:01.227Z,5.50
2022-08-31T08:14:30.184Z,9.05
2022-08-31T08:16:57.019Z,7.88
2022-08-31T08:19:23.629Z,5.60
2022-08-31T08:21:51.080Z,5.65
2022-08-31T08:24:18.878Z,5.35
2022-08-31T08:26:48.979Z,4.43
2022-08-31T08:29:18.852Z,5.78
2022-08-31T08:31:48.631Z,3.47
2022-08-31T08:34:15.254Z,7.72
2022-08-31T08:36:41.822Z,4.10
2022-08-31T08:39:08.784Z,4.82
2022-08-31T08:41:37.091Z,6.63
2022-08-31T08:44:04.312Z,5.18
2022-08-31T08:46:48.232Z,4.80
2022-08-31T08:49:16.614Z,5.88
2022-08-31T08:51:44.639Z,5.00
2022-08-31T08:54:12.593Z,7.50
2022-08-31T08:56:42.221Z,6.38
2022-08-31T08:59:12.182Z,8.73
2022-08-31T09:01:40.458Z,9.63
2022-08-31T09:04:08.388Z,8.88
2022-08-31T09:06:46.082Z,6.63
2022-08-31T09:09:20.696Z,7.93
2022-08-31T09:12:12.561Z,3.65
2022-08-31T09:15:00.170Z,5.10
2022-08-31T09:17:29.840Z,5.35
2022-08-31T09:20:00.566Z,11.57
2022-08-31T09:22:30.929Z,2.33
2022-08-31T09:24:59.818Z,2.88
2022-08-31T09:27:46.891Z,4.22
2022-08-31T09:30:32.827Z,3.45
2022-08-31T09:32:59.462Z,3.17
2022-08-31T09:35:30.368Z,6.25
2022-08-31T09:38:02.322Z,3.00
2022-08-31T09:40:36.452Z,3.00
2022-08-31T09:43:07.267Z,5.38
2022-08-31T09:45:41.414Z,3.65
2022-08-31T09:48:08.941Z,3.60
2022-08-31T09:50:39.017Z,3.10
2022-08-31T09:53:30.535Z,3.63
2022-08-31T09:56:23.203Z,5.22
2022-08-31T09:58:51.020Z,4.28
2022-08-31T10:01:29.668Z,2.58
2022-08-31T10:04:17.551Z,2.92
2022-08-31T10:06:50.148Z,2.25
2022-08-31T10:09:40.069Z,4.72
2022-08-31T10:12:09.827Z,4.53
2022-08-31T10:14:41.965Z,3.22
2022-08-31T10:17:10.559Z,2.78
2022-08-31T10:19:47.457Z,2.83
2022-08-31T10:22:33.720Z,5.30
2022-08-31T10:25:06.763Z,1.23
2022-08-31T10:27:38.584Z,2.38
2022-08-31T10:30:11.125Z,2.53
2022-08-31T10:32:42.754Z,1.38
2022-08-31T10:35:10.440Z,1.67
2022-08-31T10:37:55.557Z,2.25
2022-08-31T10:40:28.487Z,1.95
2022-08-31T10:43:17.783Z,2.08
2022-08-31T10:45:45.619Z,0.98
2022-08-31T10:48:13.207Z,0.85
2022-08-31T10:50:46.083Z,2.30
2022-08-31T10:53:22.535Z,1.60
2022-08-31T10:55:52.143Z,2.80
2022-08-31T10:58:21.631Z,0.57
2022-08-31T11:01:08.489Z,0.93
2022-08-31T11:21:20.536Z,1.33
2022-08-31T11:27:23.790Z,0.75
2022-08-31T11:33:25.008Z,0.88
2022-08-31T11:36:10.358Z,4.43
2022-08-31T11:39:03.694Z,1.42
2022-08-31T11:41:34.195Z,0.60
2022-08-31T11:44:04.721Z,0.40
2022-08-31T11:46:34.133Z,1.38
2022-08-31T11:49:00.818Z,2.08
2022-08-31T11:51:36.053Z,1.25
2022-08-31T11:54:06.162Z,1.05
2022-08-31T11:56:32.765Z,1.90
2022-08-31T11:59:32.793Z,1.60
2022-08-31T12:02:19.542Z,3.00
2022-08-31T12:04:52.314Z,3.13
2022-08-31T12:07:26.813Z,2.50
2022-08-31T12:09:53.354Z,2.92
2022-08-31T12:12:20.017Z,1.38
2022-08-31T12:14:50.294Z,1.85
2022-08-31T12:17:21.854Z,1.77
2022-08-31T12:20:01.907Z,1.27
2022-08-31T12:22:50.339Z,0.90
2022-08-31T12:25:22.401Z,2.90
2022-08-31T12:27:48.948Z,1.67
2022-08-31T12:30:22.991Z,1.50
2022-08-31T12:32:58.098Z,0.55
2022-08-31T12:35:25.611Z,0.40
2022-08-31T12:37:59.377Z,0.50
2022-08-31T12:40:30.221Z,2.15
2022-08-31T12:43:05.759Z,2.55
2022-08-31T12:45:38.621Z,0.55
2022-08-31T12:48:05.275Z,2.33
2022-08-31T12:50:31.995Z,1.85
2022-08-31T12:53:17.530Z,1.33
2022-08-31T12:55:50.378Z,1.10
2022-08-31T12:58:16.910Z,1.25
2022-08-31T13:00:46.979Z,0.57
2022-08-31T13:03:18.961Z,0.50
2022-08-31T13:06:13.094Z,0.52
2022-08-31T13:08:46.839Z,1.27
2022-08-31T13:14:24.049Z,0.80
2022-08-31T13:16:54.972Z,1.33
2022-08-31T13:19:26.111Z,0.63
2022-08-31T13:22:05.281Z,0.93
2022-08-31T13:24:33.102Z,2.70
2022-08-31T13:27:05.386Z,1.15
2022-08-31T13:29:41.300Z,0.82
2022-08-31T13:32:08.009Z,0.80
2022-08-31T13:34:41.935Z,0.32
2022-08-31T13:37:14.486Z,1.05
2022-08-31T13:39:47.878Z,2.10
2022-08-31T13:42:28.613Z,0.95
2022-08-31T13:44:56.258Z,0.77
2022-08-31T13:47:27.596Z,0.55
2022-08-31T13:50:08.977Z,0.68
2022-08-31T13:52:35.671Z,2.20
2022-08-31T13:55:06.816Z,0.52
2022-08-31T13:57:38.372Z,1.15
2022-08-31T14:00:23.858Z,1.65
2022-08-31T14:02:50.426Z,0.55
2022-08-31T14:05:30.441Z,1.10
2022-08-31T14:07:57.708Z,0.60
2022-08-31T14:10:26.421Z,2.15
2022-08-31T14:12:55.980Z,0.77
2022-08-31T14:15:43.549Z,0.63
2022-08-31T14:18:25.409Z,3.22
2022-08-31T14:21:23.126Z,2.20
2022-08-31T14:24:02.924Z,1.63
2022-08-31T14:26:34.190Z,2.10
2022-08-31T14:29:04.166Z,2.05
2022-08-31T14:31:37.343Z,2.05
2022-08-31T14:34:08.290Z,0.75
2022-08-31T14:36:44.793Z,1.42
2022-08-31T14:39:11.751Z,1.75
2022-08-31T14:41:38.274Z,0.60
2022-08-31T14:44:09.388Z,1.42
2022-08-31T14:46:36.975Z,0.93
2022-08-31T14:49:03.900Z,1.38
2022-08-31T14:51:30.864Z,1.52
2022-08-31T14:53:57.425Z,0.70
2022-08-31T14:56:29.590Z,3.63
2022-08-31T14:59:00.742Z,1.38
2022-08-31T15:01:27.842Z,1.60
2022-08-31T15:03:55.354Z,0.70
2022-08-31T15:06:21.887Z,0.50
2022-08-31T15:08:48.615Z,0.47
2022-08-31T15:11:15.222Z,0.50
2022-08-31T15:13:43.115Z,1.05
2022-08-31T15:16:13.385Z,0.70
2022-08-31T15:18:42.470Z,1.50
2022-08-31T15:21:09.360Z,0.90
2022-08-31T15:23:35.883Z,0.68
2022-08-31T15:26:06.693Z,1.15
2022-08-31T15:28:37.420Z,1.55
2022-08-31T15:31:11.733Z,0.40
2022-08-31T15:33:39.982Z,2.78
2022-08-31T15:36:07.703Z,0.50
2022-08-31T15:38:34.663Z,1.80
2022-08-31T15:41:01.196Z,2.83
2022-08-31T15:43:27.839Z,1.05
2022-08-31T15:45:54.363Z,4.43
2022-08-31T15:48:39.632Z,0.95
2022-08-31T15:51:07.464Z,2.10
2022-08-31T15:53:35.563Z,2.25
2022-08-31T15:56:06.848Z,1.88
2022-08-31T15:58:33.957Z,0.70
2022-08-31T16:01:01.041Z,2.67
2022-08-31T16:03:32.147Z,1.40
2022-08-31T16:06:01.118Z,0.77
2022-08-31T16:08:28.641Z,1.05
2022-08-31T16:10:55.413Z,0.88
2022-08-31T16:13:22.173Z,3.42
2022-08-31T16:15:51.733Z,1.85
2022-08-31T16:18:22.012Z,0.47
2022-08-31T16:20:50.580Z,0.50
2022-08-31T16:23:17.248Z,1.20
2022-08-31T16:25:48.582Z,2.95
2022-08-31T16:28:16.473Z,1.75
2022-08-31T16:30:43.979Z,2.25
2022-08-31T16:33:11.639Z,1.48
2022-08-31T16:35:39.678Z,1.70
2022-08-31T16:38:07.272Z,2.22
2022-08-31T16:40:34.444Z,2.65
2022-08-31T16:43:01.685Z,2.00
2022-08-31T16:45:28.354Z,3.40
2022-08-31T16:48:15.342Z,0.90
2022-08-31T16:50:45.482Z,4.85
2022-08-31T16:53:19.196Z,0.75
2022-08-31T16:55:50.222Z,1.98
2022-08-31T16:58:34.605Z,1.15
2022-08-31T17:01:10.850Z,1.98
2022-08-31T17:03:37.660Z,0.50
2022-08-31T17:06:04.951Z,0.82
2022-08-31T17:08:41.870Z,2.28
2022-08-31T17:11:12.757Z,0.88
2022-08-31T17:13:40.181Z,2.88
2022-08-31T17:16:08.572Z,2.90
2022-08-31T17:18:37.428Z,0.88
2022-08-31T17:21:04.727Z,1.73
2022-08-31T17:23:35.346Z,1.45
2022-08-31T17:26:06.306Z,1.38
2022-08-31T17:28:38.061Z,0.88
2022-08-31T17:31:05.805Z,1.55
2022-08-31T17:33:32.386Z,1.02
2022-08-31T17:35:59.491Z,2.05
2022-08-31T17:38:26.158Z,1.55
2022-08-31T17:40:53.693Z,1.33
2022-08-31T17:43:22.014Z,0.98
2022-08-31T17:45:51.869Z,5.35
2022-08-31T17:48:24.033Z,1.98
2022-08-31T17:50:54.015Z,0.57
2022-08-31T17:53:22.872Z,1.48
2022-08-31T17:56:12.226Z,0.85
2022-08-31T17:59:22.064Z,4.05
2022-08-31T18:01:50.268Z,0.93
2022-08-31T18:04:17.095Z,1.88
2022-08-31T18:06:46.210Z,4.55
2022-08-31T18:16:36.198Z,2.33
2022-08-31T18:19:33.968Z,3.28
2022-08-31T18:22:00.635Z,1.20
2022-08-31T18:24:27.536Z,1.35
2022-08-31T18:26:54.422Z,2.58
2022-08-31T18:29:24.995Z,1.23
2022-08-31T18:31:56.946Z,1.52
2022-08-31T18:34:24.318Z,2.40
2022-08-31T18:37:37.064Z,1.27
2022-08-31T18:44:11.777Z,2.50
2022-08-31T18:46:38.565Z,3.40
2022-08-31T18:49:12.276Z,1.05
2022-08-31T18:51:56.560Z,1.05
2022-08-31T19:01:44.553Z,1.13
2022-08-31T19:04:13.339Z,1.23
2022-08-31T19:06:40.285Z,1.75
2022-08-31T19:09:07.442Z,2.63
2022-08-31T19:11:36.224Z,2.65
2022-08-31T19:14:03.170Z,1.50
2022-08-31T19:16:30.424Z,2.33
2022-08-31T19:26:05.446Z,1.45
2022-08-31T19:28:32.474Z,2.95
2022-08-31T19:30:59.034Z,2.05
2022-08-31T19:33:27.055Z,2.08
2022-08-31T19:36:03.502Z,3.80
2022-08-31T19:38:31.545Z,2.47
2022-08-31T19:40:59.550Z,3.53
2022-08-31T19:43:45.753Z,2.35
2022-08-31T19:46:23.022Z,1.27
2022-08-31T19:48:51.452Z,2.20
2022-08-31T19:51:19.030Z,2.75
2022-08-31T19:53:45.642Z,2.10
2022-08-31T19:56:17.539Z,2.92
2022-08-31T19:58:47.198Z,1.60
2022-08-31T20:01:14.415Z,1.85
2022-08-31T20:03:41.301Z,3.80
2022-08-31T20:06:08.526Z,2.70
2022-08-31T20:08:38.734Z,4.78
2022-08-31T20:11:22.188Z,2.92
2022-08-31T20:13:48.982Z,3.17
2022-08-31T20:16:15.900Z,2.28
2022-08-31T20:18:48.927Z,4.68
2022-08-31T20:21:17.708Z,1.20
2022-08-31T20:23:44.935Z,3.58
2022-08-31T20:26:12.311Z,3.80
2022-08-31T20:28:39.592Z,6.03
2022-08-31T20:31:07.879Z,3.45
2022-08-31T20:33:35.324Z,2.13
2022-08-31T20:36:02.662Z,1.83
2022-08-31T20:41:45.716Z,2.58
2022-08-31T20:47:59.157Z,2.22
2022-08-31T20:50:26.308Z,3.42
2022-08-31T20:52:52.864Z,3.80
2022-08-31T20:55:19.405Z,2.95
2022-08-31T20:57:47.111Z,2.45
2022-08-31T21:32:35.149Z,2.53
2022-08-31T21:49:11.001Z,3.63
2022-08-31T22:56:28.209Z,2.53
2022-08-31T23:48:20.745Z,3.03
